sensor_id;sensor_type;location;lat;lon;timestamp;temperature;humidity
18934;DHT22;9599;53.706;10.384;2023-06-22T00:00:35;17.80;99.90
18934;DHT22;9599;53.706;10.384;2023-06-22T00:03:04;17.70;99.90
18934;DHT22;9599;53.706;10.384;2023-06-22T00:05:33;17.70;99.90
18934;DHT22;9599;53.706;10.384;2023-06-22T00:08:03;17.70;99.90
18934;DHT22;9599;53.706;10.384;2023-06-22T00:10:32;17.60;99.90
18934;DHT22;9599;53.706;10.384;2023-06-22T00:13:00;17.70;99.90
18934;DHT22;9599;53.706;10.384;2023-06-22T00:15:28;17.70;99.90
18934;DHT22;9599;53.706;10.384;2023-06-22T00:17:56;17.70;99.90
18934;DHT22;9599;53.706;10.384;2023-06-22T00:20:26;17.70;99.90
18934;DHT22;9599;53.706;10.384;2023-06-22T00:22:57;17.70;99.90
18934;DHT22;9599;53.706;10.384;2023-06-22T00:25:25;17.60;99.90
18934;DHT22;9599;53.706;10.384;2023-06-22T00:27:53;17.60;99.90
18934;DHT22;9599;53.706;10.384;2023-06-22T00:30:21;17.60;99.90
18934;DHT22;9599;53.706;10.384;2023-06-22T00:32:49;17.50;99.90
18934;DHT22;9599;53.706;10.384;2023-06-22T00:35:18;17.60;99.90
18934;DHT22;9599;53.706;10.384;2023-06-22T00:37:47;17.60;99.90
18934;DHT22;9599;53.706;10.384;2023-06-22T00:40:15;17.60;99.90
18934;DHT22;9599;53.706;10.384;2023-06-22T00:42:44;17.50;99.90
18934;DHT22;9599;53.706;10.384;2023-06-22T00:45:13;17.50;99.90
18934;DHT22;9599;53.706;10.384;2023-06-22T00:47:42;17.50;99.90
18934;DHT22;9599;53.706;10.384;2023-06-22T00:50:17;17.50;99.90
18934;DHT22;9599;53.706;10.384;2023-06-22T00:52:51;17.50;99.90
18934;DHT22;9599;53.706;10.384;2023-06-22T00:55:20;17.50;99.90
18934;DHT22;9599;53.706;10.384;2023-06-22T00:57:50;17.50;99.90
18934;DHT22;9599;53.706;10.384;2023-06-22T01:00:23;17.50;99.90
18934;DHT22;9599;53.706;10.384;2023-06-22T01:02:53;17.50;99.90
18934;DHT22;9599;53.706;10.384;2023-06-22T01:05:22;17.50;99.90
18934;DHT22;9599;53.706;10.384;2023-06-22T01:08:00;17.50;99.90
18934;DHT22;9599;53.706;10.384;2023-06-22T01:10:38;17.50;99.90
18934;DHT22;9599;53.706;10.384;2023-06-22T01:13:18;17.50;99.90
18934;DHT22;9599;53.706;10.384;2023-06-22T01:15:55;17.40;99.90
18934;DHT22;9599;53.706;10.384;2023-06-22T01:18:26;17.40;99.90
18934;DHT22;9599;53.706;10.384;2023-06-22T01:20:57;17.50;99.90
18934;DHT22;9599;53.706;10.384;2023-06-22T01:23:36;17.50;99.90
18934;DHT22;9599;53.706;10.384;2023-06-22T01:26:13;17.60;99.90
18934;DHT22;9599;53.706;10.384;2023-06-22T01:28:49;17.50;99.90
18934;DHT22;9599;53.706;10.384;2023-06-22T01:31:20;17.50;99.90
18934;DHT22;9599;53.706;10.384;2023-06-22T01:33:53;17.50;99.90
18934;DHT22;9599;53.706;10.384;2023-06-22T01:36:22;17.50;99.90
18934;DHT22;9599;53.706;10.384;2023-06-22T01:38:53;17.50;99.90
18934;DHT22;9599;53.706;10.384;2023-06-22T01:41:24;17.50;99.90
18934;DHT22;9599;53.706;10.384;2023-06-22T01:43:55;17.40;99.90
18934;DHT22;9599;53.706;10.384;2023-06-22T01:46:24;17.40;99.90
18934;DHT22;9599;53.706;10.384;2023-06-22T01:48:53;17.40;99.90
18934;DHT22;9599;53.706;10.384;2023-06-22T01:51:22;17.40;99.90
18934;DHT22;9599;53.706;10.384;2023-06-22T01:53:50;17.40;99.90
18934;DHT22;9599;53.706;10.384;2023-06-22T01:56:18;17.30;99.90
18934;DHT22;9599;53.706;10.384;2023-06-22T01:58:55;17.30;99.90
18934;DHT22;9599;53.706;10.384;2023-06-22T02:01:41;17.20;99.90
18934;DHT22;9599;53.706;10.384;2023-06-22T02:04:13;17.20;99.90
18934;DHT22;9599;53.706;10.384;2023-06-22T02:06:46;17.20;99.90
18934;DHT22;9599;53.706;10.384;2023-06-22T02:09:17;17.10;99.90
18934;DHT22;9599;53.706;10.384;2023-06-22T02:11:51;17.10;99.90
18934;DHT22;9599;53.706;10.384;2023-06-22T02:14:22;17.10;99.90
18934;DHT22;9599;53.706;10.384;2023-06-22T02:16:52;17.10;99.90
18934;DHT22;9599;53.706;10.384;2023-06-22T02:19:23;17.10;99.90
18934;DHT22;9599;53.706;10.384;2023-06-22T02:21:52;17.10;99.90
18934;DHT22;9599;53.706;10.384;2023-06-22T02:24:20;17.00;99.90
18934;DHT22;9599;53.706;10.384;2023-06-22T02:26:50;17.00;99.90
18934;DHT22;9599;53.706;10.384;2023-06-22T02:29:18;17.00;99.90
18934;DHT22;9599;53.706;10.384;2023-06-22T02:31:46;17.00;99.90
18934;DHT22;9599;53.706;10.384;2023-06-22T02:34:15;17.00;99.90
18934;DHT22;9599;53.706;10.384;2023-06-22T02:36:45;17.00;99.90
18934;DHT22;9599;53.706;10.384;2023-06-22T02:39:19;17.00;99.90
18934;DHT22;9599;53.706;10.384;2023-06-22T02:41:49;17.00;99.90
18934;DHT22;9599;53.706;10.384;2023-06-22T02:44:17;17.00;99.90
18934;DHT22;9599;53.706;10.384;2023-06-22T02:46:48;17.00;99.90
18934;DHT22;9599;53.706;10.384;2023-06-22T02:49:18;17.00;99.90
18934;DHT22;9599;53.706;10.384;2023-06-22T02:51:49;17.00;99.90
18934;DHT22;9599;53.706;10.384;2023-06-22T02:54:20;17.00;99.90
18934;DHT22;9599;53.706;10.384;2023-06-22T02:56:50;17.00;99.90
18934;DHT22;9599;53.706;10.384;2023-06-22T02:59:20;17.00;99.90
18934;DHT22;9599;53.706;10.384;2023-06-22T03:01:58;17.00;99.90
18934;DHT22;9599;53.706;10.384;2023-06-22T03:04:31;16.90;99.90
18934;DHT22;9599;53.706;10.384;2023-06-22T03:06:59;16.90;99.90
18934;DHT22;9599;53.706;10.384;2023-06-22T03:09:29;16.90;99.90
18934;DHT22;9599;53.706;10.384;2023-06-22T03:11:58;16.80;99.90
18934;DHT22;9599;53.706;10.384;2023-06-22T03:14:34;16.90;99.90
18934;DHT22;9599;53.706;10.384;2023-06-22T03:17:04;16.80;99.90
18934;DHT22;9599;53.706;10.384;2023-06-22T03:19:34;16.80;99.90
18934;DHT22;9599;53.706;10.384;2023-06-22T03:22:03;16.80;99.90
18934;DHT22;9599;53.706;10.384;2023-06-22T03:24:31;16.80;99.90
18934;DHT22;9599;53.706;10.384;2023-06-22T03:27:01;16.80;99.90
18934;DHT22;9599;53.706;10.384;2023-06-22T03:29:34;16.80;99.90
18934;DHT22;9599;53.706;10.384;2023-06-22T03:32:02;16.70;99.90
18934;DHT22;9599;53.706;10.384;2023-06-22T03:34:33;16.70;99.90
18934;DHT22;9599;53.706;10.384;2023-06-22T03:37:04;16.60;99.90
18934;DHT22;9599;53.706;10.384;2023-06-22T03:39:32;16.70;99.90
18934;DHT22;9599;53.706;10.384;2023-06-22T03:42:00;16.70;99.90
18934;DHT22;9599;53.706;10.384;2023-06-22T03:44:28;16.70;99.90
18934;DHT22;9599;53.706;10.384;2023-06-22T03:46:56;16.70;99.90
18934;DHT22;9599;53.706;10.384;2023-06-22T03:49:24;16.80;99.90
18934;DHT22;9599;53.706;10.384;2023-06-22T03:51:54;16.80;99.90
18934;DHT22;9599;53.706;10.384;2023-06-22T03:54:22;16.80;99.90
18934;DHT22;9599;53.706;10.384;2023-06-22T03:56:50;16.80;99.90
18934;DHT22;9599;53.706;10.384;2023-06-22T03:59:18;16.90;99.90
18934;DHT22;9599;53.706;10.384;2023-06-22T04:01:46;16.90;99.90
18934;DHT22;9599;53.706;10.384;2023-06-22T04:04:14;17.00;99.90
18934;DHT22;9599;53.706;10.384;2023-06-22T04:06:42;17.10;99.90
18934;DHT22;9599;53.706;10.384;2023-06-22T04:09:12;17.20;99.90
18934;DHT22;9599;53.706;10.384;2023-06-22T04:11:41;17.30;99.90
18934;DHT22;9599;53.706;10.384;2023-06-22T04:14:09;17.40;99.90
18934;DHT22;9599;53.706;10.384;2023-06-22T04:16:37;17.60;99.90
18934;DHT22;9599;53.706;10.384;2023-06-22T04:19:05;17.80;99.90
18934;DHT22;9599;53.706;10.384;2023-06-22T04:21:33;18.00;99.90
18934;DHT22;9599;53.706;10.384;2023-06-22T04:24:01;18.10;99.90
18934;DHT22;9599;53.706;10.384;2023-06-22T04:26:30;18.10;99.90
18934;DHT22;9599;53.706;10.384;2023-06-22T04:29:04;18.20;99.90
18934;DHT22;9599;53.706;10.384;2023-06-22T04:31:32;18.20;99.90
18934;DHT22;9599;53.706;10.384;2023-06-22T04:34:04;18.20;99.90
18934;DHT22;9599;53.706;10.384;2023-06-22T04:36:34;18.30;99.90
18934;DHT22;9599;53.706;10.384;2023-06-22T04:39:07;18.40;99.90
18934;DHT22;9599;53.706;10.384;2023-06-22T04:41:38;18.60;99.90
18934;DHT22;9599;53.706;10.384;2023-06-22T04:44:12;18.70;99.90
18934;DHT22;9599;53.706;10.384;2023-06-22T04:46:41;18.80;99.90
18934;DHT22;9599;53.706;10.384;2023-06-22T04:49:09;18.80;99.90
18934;DHT22;9599;53.706;10.384;2023-06-22T04:51:39;18.90;99.90
18934;DHT22;9599;53.706;10.384;2023-06-22T04:54:08;19.00;99.90
18934;DHT22;9599;53.706;10.384;2023-06-22T04:56:38;19.00;99.90
18934;DHT22;9599;53.706;10.384;2023-06-22T04:59:07;19.00;99.90
18934;DHT22;9599;53.706;10.384;2023-06-22T05:01:39;19.00;99.90
18934;DHT22;9599;53.706;10.384;2023-06-22T05:04:08;19.20;99.90
18934;DHT22;9599;53.706;10.384;2023-06-22T05:06:36;19.30;99.90
18934;DHT22;9599;53.706;10.384;2023-06-22T05:09:06;19.30;99.90
18934;DHT22;9599;53.706;10.384;2023-06-22T05:11:34;19.40;99.90
18934;DHT22;9599;53.706;10.384;2023-06-22T05:14:04;19.40;99.90
18934;DHT22;9599;53.706;10.384;2023-06-22T05:16:35;19.60;99.90
18934;DHT22;9599;53.706;10.384;2023-06-22T05:19:03;19.70;99.90
18934;DHT22;9599;53.706;10.384;2023-06-22T05:21:32;19.90;99.90
18934;DHT22;9599;53.706;10.384;2023-06-22T05:24:00;20.10;99.90
18934;DHT22;9599;53.706;10.384;2023-06-22T05:26:30;20.20;99.90
18934;DHT22;9599;53.706;10.384;2023-06-22T05:28:59;20.10;99.90
18934;DHT22;9599;53.706;10.384;2023-06-22T05:31:29;20.20;99.90
18934;DHT22;9599;53.706;10.384;2023-06-22T05:33:57;20.10;99.90
18934;DHT22;9599;53.706;10.384;2023-06-22T05:36:27;20.10;99.90
18934;DHT22;9599;53.706;10.384;2023-06-22T05:38:56;20.20;99.90
18934;DHT22;9599;53.706;10.384;2023-06-22T05:41:24;20.20;99.90
18934;DHT22;9599;53.706;10.384;2023-06-22T05:43:52;20.30;99.90
18934;DHT22;9599;53.706;10.384;2023-06-22T05:46:20;20.30;99.90
18934;DHT22;9599;53.706;10.384;2023-06-22T05:48:50;20.40;99.90
18934;DHT22;9599;53.706;10.384;2023-06-22T05:51:18;20.60;99.90
18934;DHT22;9599;53.706;10.384;2023-06-22T05:53:46;20.70;99.90
18934;DHT22;9599;53.706;10.384;2023-06-22T05:56:16;20.90;99.90
18934;DHT22;9599;53.706;10.384;2023-06-22T05:58:45;21.10;99.90
18934;DHT22;9599;53.706;10.384;2023-06-22T06:01:13;21.10;99.90
18934;DHT22;9599;53.706;10.384;2023-06-22T06:03:42;21.40;99.90
18934;DHT22;9599;53.706;10.384;2023-06-22T06:06:12;21.60;99.90
18934;DHT22;9599;53.706;10.384;2023-06-22T06:08:41;21.80;99.90
18934;DHT22;9599;53.706;10.384;2023-06-22T06:11:08;22.00;99.90
18934;DHT22;9599;53.706;10.384;2023-06-22T06:13:36;22.10;99.90
18934;DHT22;9599;53.706;10.384;2023-06-22T06:16:04;22.10;99.90
18934;DHT22;9599;53.706;10.384;2023-06-22T06:18:32;22.40;99.90
18934;DHT22;9599;53.706;10.384;2023-06-22T06:21:01;22.60;99.90
18934;DHT22;9599;53.706;10.384;2023-06-22T06:23:30;22.70;99.90
18934;DHT22;9599;53.706;10.384;2023-06-22T06:25:58;22.70;99.90
18934;DHT22;9599;53.706;10.384;2023-06-22T06:28:26;22.70;99.90
18934;DHT22;9599;53.706;10.384;2023-06-22T06:30:55;22.80;99.90
18934;DHT22;9599;53.706;10.384;2023-06-22T06:33:23;22.90;99.90
18934;DHT22;9599;53.706;10.384;2023-06-22T06:35:52;23.30;99.90
18934;DHT22;9599;53.706;10.384;2023-06-22T06:38:22;23.40;99.90
18934;DHT22;9599;53.706;10.384;2023-06-22T06:40:52;23.50;99.90
18934;DHT22;9599;53.706;10.384;2023-06-22T06:43:20;23.80;99.90
18934;DHT22;9599;53.706;10.384;2023-06-22T06:45:49;23.80;99.90
18934;DHT22;9599;53.706;10.384;2023-06-22T06:48:18;23.80;99.90
18934;DHT22;9599;53.706;10.384;2023-06-22T06:50:46;23.90;99.90
18934;DHT22;9599;53.706;10.384;2023-06-22T06:53:14;23.90;99.90
18934;DHT22;9599;53.706;10.384;2023-06-22T06:55:42;23.80;99.90
18934;DHT22;9599;53.706;10.384;2023-06-22T06:58:13;23.80;99.90
18934;DHT22;9599;53.706;10.384;2023-06-22T07:00:41;23.80;99.90
18934;DHT22;9599;53.706;10.384;2023-06-22T07:06:46;24.20;99.90
18934;DHT22;9599;53.706;10.384;2023-06-22T07:09:14;24.10;99.90
18934;DHT22;9599;53.706;10.384;2023-06-22T07:11:42;24.00;99.90
18934;DHT22;9599;53.706;10.384;2023-06-22T07:14:11;24.20;99.90
18934;DHT22;9599;53.706;10.384;2023-06-22T07:16:39;24.00;99.90
18934;DHT22;9599;53.706;10.384;2023-06-22T07:19:07;24.00;99.90
18934;DHT22;9599;53.706;10.384;2023-06-22T07:21:36;24.00;99.90
18934;DHT22;9599;53.706;10.384;2023-06-22T07:24:05;24.00;99.90
18934;DHT22;9599;53.706;10.384;2023-06-22T07:26:33;24.10;99.90
18934;DHT22;9599;53.706;10.384;2023-06-22T07:29:02;24.60;99.90
18934;DHT22;9599;53.706;10.384;2023-06-22T07:31:32;24.90;99.90
18934;DHT22;9599;53.706;10.384;2023-06-22T07:34:03;25.10;99.90
18934;DHT22;9599;53.706;10.384;2023-06-22T07:36:31;25.40;99.90
18934;DHT22;9599;53.706;10.384;2023-06-22T07:38:59;25.70;99.90
18934;DHT22;9599;53.706;10.384;2023-06-22T07:41:27;25.80;99.90
18934;DHT22;9599;53.706;10.384;2023-06-22T07:47:43;25.90;99.90
18934;DHT22;9599;53.706;10.384;2023-06-22T07:50:13;25.90;99.90
18934;DHT22;9599;53.706;10.384;2023-06-22T07:52:41;25.70;99.90
18934;DHT22;9599;53.706;10.384;2023-06-22T07:55:10;25.70;99.90
18934;DHT22;9599;53.706;10.384;2023-06-22T07:57:38;25.50;99.90
18934;DHT22;9599;53.706;10.384;2023-06-22T08:00:07;25.40;99.90
18934;DHT22;9599;53.706;10.384;2023-06-22T08:02:44;25.40;99.90
18934;DHT22;9599;53.706;10.384;2023-06-22T08:05:14;25.40;99.90
18934;DHT22;9599;53.706;10.384;2023-06-22T08:07:46;25.30;99.90
18934;DHT22;9599;53.706;10.384;2023-06-22T08:10:15;25.40;99.90
18934;DHT22;9599;53.706;10.384;2023-06-22T08:12:43;25.70;99.90
18934;DHT22;9599;53.706;10.384;2023-06-22T08:15:11;25.70;99.90
18934;DHT22;9599;53.706;10.384;2023-06-22T08:17:40;25.70;99.90
18934;DHT22;9599;53.706;10.384;2023-06-22T08:20:11;25.80;99.90
18934;DHT22;9599;53.706;10.384;2023-06-22T08:22:40;26.00;99.90
18934;DHT22;9599;53.706;10.384;2023-06-22T08:25:09;26.00;99.90
18934;DHT22;9599;53.706;10.384;2023-06-22T08:27:37;26.10;99.90
18934;DHT22;9599;53.706;10.384;2023-06-22T08:30:07;26.50;99.90
18934;DHT22;9599;53.706;10.384;2023-06-22T08:32:35;26.80;99.90
18934;DHT22;9599;53.706;10.384;2023-06-22T08:35:03;26.90;99.90
18934;DHT22;9599;53.706;10.384;2023-06-22T08:37:35;27.10;99.90
18934;DHT22;9599;53.706;10.384;2023-06-22T08:40:05;27.10;99.90
18934;DHT22;9599;53.706;10.384;2023-06-22T08:42:35;26.70;99.90
18934;DHT22;9599;53.706;10.384;2023-06-22T08:45:04;26.30;99.90
18934;DHT22;9599;53.706;10.384;2023-06-22T08:47:32;26.30;99.90
18934;DHT22;9599;53.706;10.384;2023-06-22T08:50:00;26.10;99.90
18934;DHT22;9599;53.706;10.384;2023-06-22T08:52:31;26.30;99.90
18934;DHT22;9599;53.706;10.384;2023-06-22T08:55:00;26.30;99.90
18934;DHT22;9599;53.706;10.384;2023-06-22T08:57:30;26.80;99.90
18934;DHT22;9599;53.706;10.384;2023-06-22T08:59:59;27.30;99.90
18934;DHT22;9599;53.706;10.384;2023-06-22T09:02:27;27.50;99.90
18934;DHT22;9599;53.706;10.384;2023-06-22T09:04:58;27.60;99.90
18934;DHT22;9599;53.706;10.384;2023-06-22T09:07:27;27.70;99.90
18934;DHT22;9599;53.706;10.384;2023-06-22T09:09:55;27.70;99.90
18934;DHT22;9599;53.706;10.384;2023-06-22T09:12:25;27.80;99.90
18934;DHT22;9599;53.706;10.384;2023-06-22T09:14:54;27.70;99.90
18934;DHT22;9599;53.706;10.384;2023-06-22T09:17:22;27.50;99.90
18934;DHT22;9599;53.706;10.384;2023-06-22T09:19:50;27.50;99.90
18934;DHT22;9599;53.706;10.384;2023-06-22T09:22:18;27.40;99.90
18934;DHT22;9599;53.706;10.384;2023-06-22T09:24:47;27.20;99.90
18934;DHT22;9599;53.706;10.384;2023-06-22T09:27:15;27.00;99.90
18934;DHT22;9599;53.706;10.384;2023-06-22T09:29:46;27.20;99.90
18934;DHT22;9599;53.706;10.384;2023-06-22T09:32:14;27.50;99.90
18934;DHT22;9599;53.706;10.384;2023-06-22T09:34:42;27.90;99.90
18934;DHT22;9599;53.706;10.384;2023-06-22T09:37:12;28.30;99.90
18934;DHT22;9599;53.706;10.384;2023-06-22T09:39:40;28.80;99.90
18934;DHT22;9599;53.706;10.384;2023-06-22T09:42:08;28.70;99.90
18934;DHT22;9599;53.706;10.384;2023-06-22T09:52:35;29.00;99.90
18934;DHT22;9599;53.706;10.384;2023-06-22T09:55:07;29.10;99.90
18934;DHT22;9599;53.706;10.384;2023-06-22T09:57:35;28.60;99.90
18934;DHT22;9599;53.706;10.384;2023-06-22T10:00:04;28.40;99.90
18934;DHT22;9599;53.706;10.384;2023-06-22T10:02:35;28.70;99.90
18934;DHT22;9599;53.706;10.384;2023-06-22T10:05:04;28.50;99.90
18934;DHT22;9599;53.706;10.384;2023-06-22T10:07:32;28.40;99.90
18934;DHT22;9599;53.706;10.384;2023-06-22T10:10:01;28.60;99.90
18934;DHT22;9599;53.706;10.384;2023-06-22T10:12:30;28.90;99.90
18934;DHT22;9599;53.706;10.384;2023-06-22T10:14:58;28.90;99.90
18934;DHT22;9599;53.706;10.384;2023-06-22T10:17:26;28.80;99.90
18934;DHT22;9599;53.706;10.384;2023-06-22T10:19:54;28.40;99.90
18934;DHT22;9599;53.706;10.384;2023-06-22T10:22:22;28.40;99.90
18934;DHT22;9599;53.706;10.384;2023-06-22T10:24:50;28.60;99.90
18934;DHT22;9599;53.706;10.384;2023-06-22T10:27:21;28.80;99.90
18934;DHT22;9599;53.706;10.384;2023-06-22T10:29:49;29.40;99.90
18934;DHT22;9599;53.706;10.384;2023-06-22T10:32:17;29.70;99.90
18934;DHT22;9599;53.706;10.384;2023-06-22T10:34:45;30.00;99.90
18934;DHT22;9599;53.706;10.384;2023-06-22T10:37:13;30.10;99.90
18934;DHT22;9599;53.706;10.384;2023-06-22T10:39:41;30.10;99.90
18934;DHT22;9599;53.706;10.384;2023-06-22T10:42:10;29.90;99.90
18934;DHT22;9599;53.706;10.384;2023-06-22T10:44:39;29.90;99.90
18934;DHT22;9599;53.706;10.384;2023-06-22T10:47:08;29.80;99.90
18934;DHT22;9599;53.706;10.384;2023-06-22T10:49:36;29.50;99.90
18934;DHT22;9599;53.706;10.384;2023-06-22T10:52:05;29.50;99.90
18934;DHT22;9599;53.706;10.384;2023-06-22T10:54:33;29.40;99.90
18934;DHT22;9599;53.706;10.384;2023-06-22T10:57:02;29.50;99.90
18934;DHT22;9599;53.706;10.384;2023-06-22T10:59:30;29.70;99.90
18934;DHT22;9599;53.706;10.384;2023-06-22T11:02:00;29.90;99.90
18934;DHT22;9599;53.706;10.384;2023-06-22T11:04:30;29.70;99.90
18934;DHT22;9599;53.706;10.384;2023-06-22T11:06:58;29.40;99.90
18934;DHT22;9599;53.706;10.384;2023-06-22T11:09:26;29.30;99.90
18934;DHT22;9599;53.706;10.384;2023-06-22T11:11:56;29.40;99.90
18934;DHT22;9599;53.706;10.384;2023-06-22T11:14:27;29.90;99.90
18934;DHT22;9599;53.706;10.384;2023-06-22T11:16:55;30.20;99.90
18934;DHT22;9599;53.706;10.384;2023-06-22T11:19:24;30.10;99.90
18934;DHT22;9599;53.706;10.384;2023-06-22T11:21:52;30.20;99.90
18934;DHT22;9599;53.706;10.384;2023-06-22T11:24:20;30.60;99.90
18934;DHT22;9599;53.706;10.384;2023-06-22T11:26:49;30.40;99.90
18934;DHT22;9599;53.706;10.384;2023-06-22T11:29:17;30.40;99.90
18934;DHT22;9599;53.706;10.384;2023-06-22T11:32:03;30.40;99.90
18934;DHT22;9599;53.706;10.384;2023-06-22T11:34:33;30.20;99.90
18934;DHT22;9599;53.706;10.384;2023-06-22T11:37:01;29.80;99.90
18934;DHT22;9599;53.706;10.384;2023-06-22T11:39:29;29.70;99.90
18934;DHT22;9599;53.706;10.384;2023-06-22T11:42:08;29.90;99.90
18934;DHT22;9599;53.706;10.384;2023-06-22T11:44:37;30.30;99.90
18934;DHT22;9599;53.706;10.384;2023-06-22T11:47:05;30.30;99.90
18934;DHT22;9599;53.706;10.384;2023-06-22T11:49:35;30.10;99.90
18934;DHT22;9599;53.706;10.384;2023-06-22T11:52:03;29.90;99.90
18934;DHT22;9599;53.706;10.384;2023-06-22T11:54:31;29.80;99.90
18934;DHT22;9599;53.706;10.384;2023-06-22T11:57:00;29.80;99.90
18934;DHT22;9599;53.706;10.384;2023-06-22T11:59:28;29.40;99.90
18934;DHT22;9599;53.706;10.384;2023-06-22T12:01:57;29.20;99.90
18934;DHT22;9599;53.706;10.384;2023-06-22T12:04:25;28.90;99.90
18934;DHT22;9599;53.706;10.384;2023-06-22T12:06:55;28.80;99.90
18934;DHT22;9599;53.706;10.384;2023-06-22T12:09:23;28.60;99.90
18934;DHT22;9599;53.706;10.384;2023-06-22T12:11:51;28.60;99.90
18934;DHT22;9599;53.706;10.384;2023-06-22T12:14:19;29.10;99.90
18934;DHT22;9599;53.706;10.384;2023-06-22T12:16:47;29.50;99.90
18934;DHT22;9599;53.706;10.384;2023-06-22T12:19:15;29.90;99.90
18934;DHT22;9599;53.706;10.384;2023-06-22T12:21:43;29.90;99.90
18934;DHT22;9599;53.706;10.384;2023-06-22T12:24:14;30.10;99.90
18934;DHT22;9599;53.706;10.384;2023-06-22T12:26:42;30.00;99.90
18934;DHT22;9599;53.706;10.384;2023-06-22T12:29:10;29.40;99.90
18934;DHT22;9599;53.706;10.384;2023-06-22T12:31:38;29.10;99.90
18934;DHT22;9599;53.706;10.384;2023-06-22T12:34:06;29.00;99.90
18934;DHT22;9599;53.706;10.384;2023-06-22T12:36:35;29.10;99.90
18934;DHT22;9599;53.706;10.384;2023-06-22T12:39:03;29.40;99.90
18934;DHT22;9599;53.706;10.384;2023-06-22T12:41:32;29.80;99.90
18934;DHT22;9599;53.706;10.384;2023-06-22T12:44:00;30.00;99.90
18934;DHT22;9599;53.706;10.384;2023-06-22T12:46:28;29.90;99.90
18934;DHT22;9599;53.706;10.384;2023-06-22T12:49:03;30.00;99.90
18934;DHT22;9599;53.706;10.384;2023-06-22T12:51:31;30.20;99.90
18934;DHT22;9599;53.706;10.384;2023-06-22T12:54:02;30.30;99.90
18934;DHT22;9599;53.706;10.384;2023-06-22T12:56:31;30.20;99.90
18934;DHT22;9599;53.706;10.384;2023-06-22T12:58:59;29.90;99.90
18934;DHT22;9599;53.706;10.384;2023-06-22T13:01:28;29.80;99.90
18934;DHT22;9599;53.706;10.384;2023-06-22T13:03:57;29.70;99.90
18934;DHT22;9599;53.706;10.384;2023-06-22T13:06:25;29.60;99.90
18934;DHT22;9599;53.706;10.384;2023-06-22T13:08:54;29.50;99.90
18934;DHT22;9599;53.706;10.384;2023-06-22T13:11:43;29.60;99.90
18934;DHT22;9599;53.706;10.384;2023-06-22T13:14:11;29.60;99.90
18934;DHT22;9599;53.706;10.384;2023-06-22T13:16:39;29.70;99.90
18934;DHT22;9599;53.706;10.384;2023-06-22T13:19:07;29.60;99.90
18934;DHT22;9599;53.706;10.384;2023-06-22T13:21:36;29.60;99.90
18934;DHT22;9599;53.706;10.384;2023-06-22T13:24:05;29.60;99.90
18934;DHT22;9599;53.706;10.384;2023-06-22T13:26:34;29.70;99.90
18934;DHT22;9599;53.706;10.384;2023-06-22T13:29:03;29.80;99.90
18934;DHT22;9599;53.706;10.384;2023-06-22T13:31:32;29.90;99.90
18934;DHT22;9599;53.706;10.384;2023-06-22T13:34:00;30.20;99.90
18934;DHT22;9599;53.706;10.384;2023-06-22T13:36:28;30.10;99.90
18934;DHT22;9599;53.706;10.384;2023-06-22T13:38:57;29.60;99.90
18934;DHT22;9599;53.706;10.384;2023-06-22T13:41:25;29.30;99.90
18934;DHT22;9599;53.706;10.384;2023-06-22T13:43:54;29.10;99.90
18934;DHT22;9599;53.706;10.384;2023-06-22T13:46:23;29.20;99.90
18934;DHT22;9599;53.706;10.384;2023-06-22T13:48:51;29.20;99.90
18934;DHT22;9599;53.706;10.384;2023-06-22T13:51:23;29.20;99.90
18934;DHT22;9599;53.706;10.384;2023-06-22T13:53:51;29.10;99.90
18934;DHT22;9599;53.706;10.384;2023-06-22T13:56:19;28.90;99.90
18934;DHT22;9599;53.706;10.384;2023-06-22T13:58:47;28.90;99.90
18934;DHT22;9599;53.706;10.384;2023-06-22T14:01:15;28.80;99.90
18934;DHT22;9599;53.706;10.384;2023-06-22T14:03:45;28.60;99.90
18934;DHT22;9599;53.706;10.384;2023-06-22T14:06:13;28.60;99.90
18934;DHT22;9599;53.706;10.384;2023-06-22T14:08:41;28.70;99.90
18934;DHT22;9599;53.706;10.384;2023-06-22T14:11:10;28.80;99.90
18934;DHT22;9599;53.706;10.384;2023-06-22T14:13:38;28.80;99.90
18934;DHT22;9599;53.706;10.384;2023-06-22T14:16:09;28.70;99.90
18934;DHT22;9599;53.706;10.384;2023-06-22T14:18:37;28.50;99.90
18934;DHT22;9599;53.706;10.384;2023-06-22T14:21:07;28.30;99.90
18934;DHT22;9599;53.706;10.384;2023-06-22T14:23:35;28.20;99.90
18934;DHT22;9599;53.706;10.384;2023-06-22T14:26:04;28.00;99.90
18934;DHT22;9599;53.706;10.384;2023-06-22T14:28:33;28.00;99.90
18934;DHT22;9599;53.706;10.384;2023-06-22T14:31:01;27.90;99.90
18934;DHT22;9599;53.706;10.384;2023-06-22T14:33:29;27.90;99.90
18934;DHT22;9599;53.706;10.384;2023-06-22T14:35:57;27.80;99.90
18934;DHT22;9599;53.706;10.384;2023-06-22T14:38:27;27.90;99.90
18934;DHT22;9599;53.706;10.384;2023-06-22T14:40:55;28.00;99.90
18934;DHT22;9599;53.706;10.384;2023-06-22T14:43:43;27.90;99.90
18934;DHT22;9599;53.706;10.384;2023-06-22T14:46:11;27.70;99.90
18934;DHT22;9599;53.706;10.384;2023-06-22T14:48:39;27.50;99.90
18934;DHT22;9599;53.706;10.384;2023-06-22T14:51:08;27.30;99.90
18934;DHT22;9599;53.706;10.384;2023-06-22T14:53:41;27.30;99.90
18934;DHT22;9599;53.706;10.384;2023-06-22T14:56:09;27.40;99.90
18934;DHT22;9599;53.706;10.384;2023-06-22T14:58:38;27.40;99.90
18934;DHT22;9599;53.706;10.384;2023-06-22T15:01:07;27.40;99.90
18934;DHT22;9599;53.706;10.384;2023-06-22T15:03:35;27.30;99.90
18934;DHT22;9599;53.706;10.384;2023-06-22T15:06:04;27.20;99.90
18934;DHT22;9599;53.706;10.384;2023-06-22T15:08:33;27.10;99.90
18934;DHT22;9599;53.706;10.384;2023-06-22T15:11:03;26.90;99.90
18934;DHT22;9599;53.706;10.384;2023-06-22T15:13:31;26.80;99.90
18934;DHT22;9599;53.706;10.384;2023-06-22T15:16:01;26.60;99.90
18934;DHT22;9599;53.706;10.384;2023-06-22T15:18:31;26.50;99.90
18934;DHT22;9599;53.706;10.384;2023-06-22T15:21:00;26.40;99.90
18934;DHT22;9599;53.706;10.384;2023-06-22T15:23:29;26.40;99.90
18934;DHT22;9599;53.706;10.384;2023-06-22T15:25:57;26.40;99.90
18934;DHT22;9599;53.706;10.384;2023-06-22T15:28:28;26.30;99.90
18934;DHT22;9599;53.706;10.384;2023-06-22T15:30:58;26.30;99.90
18934;DHT22;9599;53.706;10.384;2023-06-22T15:33:27;26.30;99.90
18934;DHT22;9599;53.706;10.384;2023-06-22T15:35:55;26.30;99.90
18934;DHT22;9599;53.706;10.384;2023-06-22T15:38:23;26.20;99.90
18934;DHT22;9599;53.706;10.384;2023-06-22T15:40:51;26.10;99.90
18934;DHT22;9599;53.706;10.384;2023-06-22T15:43:19;26.00;99.90
18934;DHT22;9599;53.706;10.384;2023-06-22T15:45:49;26.00;99.90
18934;DHT22;9599;53.706;10.384;2023-06-22T15:48:17;26.00;99.90
18934;DHT22;9599;53.706;10.384;2023-06-22T15:50:45;26.00;99.90
18934;DHT22;9599;53.706;10.384;2023-06-22T15:53:13;25.90;99.90
18934;DHT22;9599;53.706;10.384;2023-06-22T15:55:41;25.80;99.90
18934;DHT22;9599;53.706;10.384;2023-06-22T15:58:09;25.70;99.90